Manchester Village, Vermont
Current Conditions -  °F | °C
As of 11:54 AM on Friday 24 Oct 2014 (Local Time) from KDDH Reporting Station
Overcast Overcast  
Wind Chill: 40°   Ceiling: 1100
Heat Index: 45°   Visibility: 10mi
Dew Point: 40°   Wind: 9mph
Humidity: 82%   Direction: 330°NNW
Pressure: 29.83"   Gusts: NA
Location:  43.1635°N, 73.0724°W
Report Text: KDDH 241554Z AUTO 33008KT 10SM BKN011 OVC016 07/04 A2983 RMK AO2 SLP104 T00720044
Loading
Personal Weather Stations






























Interactive Weather Map
Tropical Storm Tracking
New forecast layout! Learn more

10-Day Weather Forecast

Advertisements
Track Severe Weather on mobile